Time;durP1;ratioP1;P1;durP2;ratioP2;P2;SDS_P1;SDS_P2;PMS_P1;PMS_P2;Temp;Humidity;BMP_temperature;BMP_pressure;BME280_temperature;BME280_humidity;BME280_pressure;Samples;Min_cycle;Max_cycle;Signal;HPM_P1;HPM_P2
2021/06/26 00:00:54;;;;;;;9.55;7.63;;;;;;;;;;4973191;28;20076;-88
2021/06/26 00:03:39;;;;;;;10.75;8.07;;;;;;;;;;4969091;28;20030;-87
2021/06/26 00:06:27;;;;;;;11.57;7.97;;;;;;;;;;4964949;28;20819;-87
2021/06/26 00:09:15;;;;;;;12.25;8.30;;;;;;;;;;4962833;28;20065;-87
2021/06/26 00:12:01;;;;;;;10.38;7.75;;;;;;;;;;4968846;28;20404;-88
2021/06/26 00:14:46;;;;;;;10.80;7.72;;;;;;;;;;4963530;28;20031;-88
2021/06/26 00:17:32;;;;;;;10.60;8.15;;;;;;;;;;4957483;28;20388;-88
2021/06/26 00:20:17;;;;;;;10.98;8.40;;;;;;;;;;4961705;28;20026;-89
2021/06/26 00:23:02;;;;;;;8.73;7.15;;;;;;;;;;4971813;28;20029;-88
2021/06/26 00:25:50;;;;;;;10.45;7.55;;;;;;;;;;4971483;28;20022;-88
2021/06/26 00:28:36;;;;;;;9.38;7.75;;;;;;;;;;4964609;28;20045;-87
2021/06/26 00:31:23;;;;;;;10.60;7.97;;;;;;;;;;4961262;28;20023;-87
2021/06/26 00:34:09;;;;;;;10.25;7.10;;;;;;;;;;4981812;28;20084;-87
2021/06/26 00:36:56;;;;;;;10.88;7.35;;;;;;;;;;4963993;28;20100;-86
2021/06/26 00:39:42;;;;;;;17.08;9.02;;;;;;;;;;4967107;28;20058;-86
2021/06/26 00:42:31;;;;;;;12.75;8.52;;;;;;;;;;4956854;28;20245;-88
2021/06/26 00:45:16;;;;;;;10.68;8.98;;;;;;;;;;4970537;28;20030;-88
2021/06/26 00:48:04;;;;;;;9.45;7.55;;;;;;;;;;4971400;28;20488;-89
2021/06/26 00:50:50;;;;;;;9.52;7.53;;;;;;;;;;4966730;28;20030;-87
2021/06/26 00:53:38;;;;;;;9.43;6.70;;;;;;;;;;4970221;28;20378;-87
2021/06/26 00:56:27;;;;;;;9.02;6.80;;;;;;;;;;4969594;28;20034;-88
2021/06/26 00:59:13;;;;;;;10.60;7.28;;;;;;;;;;4980587;28;20022;-88
2021/06/26 01:01:59;;;;;;;10.52;7.25;;;;;;;;;;4967077;28;20038;-89
2021/06/26 01:04:44;;;;;;;11.13;6.75;;;;;;;;;;4970656;28;20030;-88
2021/06/26 01:07:29;;;;;;;10.23;8.07;;;;;;;;;;4974473;28;20652;-88
2021/06/26 01:10:17;;;;;;;10.63;8.00;;;;;;;;;;4973438;28;20022;-88
2021/06/26 01:13:05;;;;;;;8.55;6.88;;;;;;;;;;4956549;28;20022;-89
2021/06/26 01:15:51;;;;;;;12.27;8.35;;;;;;;;;;4961364;28;20466;-88
2021/06/26 01:18:36;;;;;;;8.95;7.70;;;;;;;;;;4968508;28;20116;-88
2021/06/26 01:21:22;;;;;;;12.88;7.78;;;;;;;;;;4971655;28;20026;-87
2021/06/26 01:24:07;;;;;;;9.95;8.02;;;;;;;;;;4950033;28;20057;-88
2021/06/26 01:27:01;;;;;;;11.75;7.68;;;;;;;;;;4973593;28;20018;-88
2021/06/26 01:29:53;;;;;;;10.80;7.65;;;;;;;;;;4974602;28;20081;-89
2021/06/26 01:32:43;;;;;;;10.05;8.40;;;;;;;;;;4966157;28;20478;-88
2021/06/26 01:35:29;;;;;;;11.00;8.20;;;;;;;;;;4967456;28;20022;-88
2021/06/26 01:38:15;;;;;;;9.90;7.40;;;;;;;;;;4966888;28;20272;-86
2021/06/26 01:41:02;;;;;;;10.38;8.30;;;;;;;;;;4968633;28;20514;-87
2021/06/26 01:43:50;;;;;;;11.13;8.23;;;;;;;;;;4956174;28;20473;-88
2021/06/26 01:46:43;;;;;;;10.77;8.88;;;;;;;;;;4973170;28;20037;-89
2021/06/26 01:49:39;;;;;;;11.95;7.97;;;;;;;;;;4970710;28;20038;-87
2021/06/26 01:52:24;;;;;;;10.13;7.28;;;;;;;;;;4959064;28;20018;-88
2021/06/26 01:55:11;;;;;;;10.70;7.07;;;;;;;;;;4959767;28;20025;-88
2021/06/26 01:57:56;;;;;;;9.07;7.25;;;;;;;;;;4975511;28;20030;-86
2021/06/26 02:00:42;;;;;;;11.10;7.70;;;;;;;;;;4966910;28;20323;-87
2021/06/26 02:03:27;;;;;;;12.45;7.88;;;;;;;;;;4980214;28;20046;-88
2021/06/26 02:06:12;;;;;;;11.68;7.57;;;;;;;;;;4988993;28;20033;-88
2021/06/26 02:08:58;;;;;;;10.80;7.53;;;;;;;;;;4980189;28;20682;-89
2021/06/26 02:11:43;;;;;;;9.27;7.72;;;;;;;;;;4955117;28;20037;-88
2021/06/26 02:14:28;;;;;;;10.68;7.72;;;;;;;;;;4974163;28;20477;-89
2021/06/26 02:17:14;;;;;;;12.57;7.55;;;;;;;;;;4967924;28;20026;-88
2021/06/26 02:20:01;;;;;;;9.40;7.15;;;;;;;;;;4970352;28;20132;-88
2021/06/26 02:22:49;;;;;;;8.68;7.00;;;;;;;;;;4970728;28;20026;-88
2021/06/26 02:25:39;;;;;;;9.52;7.22;;;;;;;;;;4960877;28;20022;-88
2021/06/26 02:28:25;;;;;;;12.68;8.50;;;;;;;;;;4972282;28;20074;-88
2021/06/26 02:31:10;;;;;;;10.98;7.55;;;;;;;;;;4975069;28;20029;-88
2021/06/26 02:33:55;;;;;;;9.93;8.48;;;;;;;;;;4968601;28;20574;-87
2021/06/26 02:36:43;;;;;;;8.13;7.25;;;;;;;;;;4966891;28;20113;-88
2021/06/26 02:39:28;;;;;;;10.63;7.47;;;;;;;;;;4964983;28;20026;-87
2021/06/26 02:42:14;;;;;;;8.70;6.85;;;;;;;;;;4964201;28;20030;-86
2021/06/26 02:44:59;;;;;;;12.07;8.20;;;;;;;;;;4962035;28;20042;-88
2021/06/26 02:47:45;;;;;;;10.88;6.82;;;;;;;;;;4971887;28;20022;-87
2021/06/26 02:50:30;;;;;;;11.23;8.13;;;;;;;;;;4968174;28;20034;-86
2021/06/26 02:53:16;;;;;;;11.15;8.40;;;;;;;;;;4961893;28;20034;-87
2021/06/26 02:56:01;;;;;;;12.00;8.43;;;;;;;;;;4968620;28;20358;-86
2021/06/26 02:58:46;;;;;;;11.15;7.68;;;;;;;;;;4972751;28;20030;-87
2021/06/26 03:01:31;;;;;;;11.73;7.43;;;;;;;;;;4960568;28;20538;-86
2021/06/26 03:04:17;;;;;;;10.55;7.18;;;;;;;;;;4965859;28;20033;-87
2021/06/26 03:07:02;;;;;;;9.65;7.47;;;;;;;;;;4965476;28;20030;-88
2021/06/26 03:09:47;;;;;;;11.18;7.75;;;;;;;;;;4961521;28;20056;-88
2021/06/26 03:12:32;;;;;;;12.82;8.65;;;;;;;;;;4959002;28;20537;-87
2021/06/26 03:15:18;;;;;;;12.50;9.10;;;;;;;;;;4969351;28;20034;-87
2021/06/26 03:18:03;;;;;;;11.55;8.70;;;;;;;;;;4967433;28;20026;-87
2021/06/26 03:20:48;;;;;;;10.85;8.45;;;;;;;;;;4959972;28;20670;-87
2021/06/26 03:23:33;;;;;;;13.40;7.95;;;;;;;;;;4961934;28;20530;-87
2021/06/26 03:26:19;;;;;;;11.90;8.38;;;;;;;;;;4971518;28;20113;-88
2021/06/26 03:29:05;;;;;;;10.93;8.75;;;;;;;;;;4956153;28;20113;-87
2021/06/26 03:31:50;;;;;;;13.05;9.50;;;;;;;;;;4977155;28;20072;-87
2021/06/26 03:34:35;;;;;;;12.18;9.05;;;;;;;;;;4970827;28;20066;-87
2021/06/26 03:37:20;;;;;;;12.95;8.75;;;;;;;;;;4968256;28;20030;-87
2021/06/26 03:40:06;;;;;;;13.10;8.80;;;;;;;;;;4967926;28;20050;-88
2021/06/26 03:42:51;;;;;;;14.60;9.25;;;;;;;;;;4970822;28;20084;-88
2021/06/26 03:45:36;;;;;;;17.42;9.70;;;;;;;;;;4971382;28;20492;-89
2021/06/26 03:48:22;;;;;;;13.18;8.43;;;;;;;;;;4962098;28;20425;-88
2021/06/26 03:51:07;;;;;;;20.80;8.85;;;;;;;;;;4971583;28;20138;-88
2021/06/26 03:53:54;;;;;;;13.45;9.23;;;;;;;;;;4966150;28;20477;-88
2021/06/26 03:56:39;;;;;;;12.43;9.05;;;;;;;;;;4978102;28;20038;-88
2021/06/26 03:59:24;;;;;;;10.23;8.15;;;;;;;;;;4961084;28;20106;-88
2021/06/26 04:02:09;;;;;;;13.75;9.88;;;;;;;;;;4974303;28;20030;-88
2021/06/26 04:04:54;;;;;;;13.65;9.80;;;;;;;;;;4972503;28;20030;-87
2021/06/26 04:07:40;;;;;;;14.35;9.77;;;;;;;;;;4971224;28;20027;-88
2021/06/26 04:10:27;;;;;;;12.52;10.68;;;;;;;;;;4967364;28;20034;-88
2021/06/26 04:13:12;;;;;;;17.10;10.45;;;;;;;;;;4975137;28;20061;-88
2021/06/26 04:15:57;;;;;;;15.18;11.38;;;;;;;;;;4958271;28;20030;-86
2021/06/26 04:18:42;;;;;;;14.13;10.68;;;;;;;;;;4979436;28;20015;-87
2021/06/26 04:21:28;;;;;;;12.60;8.98;;;;;;;;;;4968026;28;20035;-87
2021/06/26 04:24:16;;;;;;;11.93;8.57;;;;;;;;;;4960594;28;20022;-88
2021/06/26 04:27:01;;;;;;;13.27;9.55;;;;;;;;;;4983568;28;20028;-86
2021/06/26 04:29:46;;;;;;;13.10;10.18;;;;;;;;;;4972577;28;20018;-87
2021/06/26 04:32:34;;;;;;;13.95;9.55;;;;;;;;;;4979508;28;20115;-86
2021/06/26 04:35:24;;;;;;;11.40;8.48;;;;;;;;;;4987245;28;20113;-87
2021/06/26 04:38:09;;;;;;;12.50;9.82;;;;;;;;;;4975951;28;20030;-86
2021/06/26 04:40:55;;;;;;;12.32;8.85;;;;;;;;;;4973686;28;20421;-87
2021/06/26 04:43:40;;;;;;;16.33;9.75;;;;;;;;;;4970851;28;20517;-88
2021/06/26 04:46:25;;;;;;;12.32;8.77;;;;;;;;;;4964091;28;20201;-88
2021/06/26 04:49:11;;;;;;;11.77;8.23;;;;;;;;;;4971341;28;20015;-88
2021/06/26 04:51:56;;;;;;;11.98;8.50;;;;;;;;;;4972431;28;20058;-86
2021/06/26 04:54:41;;;;;;;16.00;9.00;;;;;;;;;;4970791;28;20019;-88
2021/06/26 04:57:27;;;;;;;13.30;9.38;;;;;;;;;;4972007;28;20029;-87
2021/06/26 05:00:12;;;;;;;11.82;8.98;;;;;;;;;;4959368;28;20030;-87
2021/06/26 05:02:57;;;;;;;11.93;8.93;;;;;;;;;;4967266;28;20391;-86
2021/06/26 05:05:43;;;;;;;10.20;8.85;;;;;;;;;;4970915;28;20374;-87
2021/06/26 05:08:28;;;;;;;11.73;8.90;;;;;;;;;;4970338;28;20046;-87
2021/06/26 05:11:13;;;;;;;10.27;9.05;;;;;;;;;;4967745;28;20457;-89
2021/06/26 05:13:59;;;;;;;11.02;8.60;;;;;;;;;;4964187;28;20027;-87
2021/06/26 05:16:44;;;;;;;11.63;9.90;;;;;;;;;;4965992;28;20034;-88
2021/06/26 05:19:29;;;;;;;13.13;9.02;;;;;;;;;;4971914;28;20019;-89
2021/06/26 05:22:14;;;;;;;11.52;9.25;;;;;;;;;;4968453;28;20034;-88
2021/06/26 05:24:59;;;;;;;11.55;8.82;;;;;;;;;;4969398;28;20453;-87
2021/06/26 05:27:45;;;;;;;10.30;9.10;;;;;;;;;;4959869;28;20133;-89
2021/06/26 05:30:30;;;;;;;14.73;11.32;;;;;;;;;;4966956;28;20025;-89
2021/06/26 05:33:15;;;;;;;16.27;10.00;;;;;;;;;;4966982;28;20117;-88
2021/06/26 05:36:01;;;;;;;12.50;10.48;;;;;;;;;;4967249;28;20027;-87
2021/06/26 05:38:46;;;;;;;12.75;9.10;;;;;;;;;;4963534;28;20022;-86
2021/06/26 05:41:31;;;;;;;11.80;9.60;;;;;;;;;;4967615;28;20547;-88
2021/06/26 05:44:18;;;;;;;14.68;10.20;;;;;;;;;;4966977;28;20053;-88
2021/06/26 05:47:03;;;;;;;15.68;12.38;;;;;;;;;;4977835;28;20023;-87
2021/06/26 05:49:49;;;;;;;19.40;16.55;;;;;;;;;;4959367;28;20022;-88
2021/06/26 05:52:43;;;;;;;22.42;18.00;;;;;;;;;;4965147;28;20384;-90
2021/06/26 05:55:29;;;;;;;17.02;14.93;;;;;;;;;;4967226;28;20452;-90
2021/06/26 05:58:14;;;;;;;13.65;11.73;;;;;;;;;;4964824;28;20100;-87
2021/06/26 06:01:00;;;;;;;13.45;10.43;;;;;;;;;;4966370;28;20034;-88
2021/06/26 06:03:46;;;;;;;19.25;14.00;;;;;;;;;;4970301;28;20022;-89
2021/06/26 06:06:32;;;;;;;16.00;13.43;;;;;;;;;;4971439;28;20026;-89
2021/06/26 06:09:17;;;;;;;15.90;13.07;;;;;;;;;;4974112;28;20183;-89
2021/06/26 06:12:03;;;;;;;17.92;14.35;;;;;;;;;;4971843;28;20022;-89
2021/06/26 06:14:48;;;;;;;18.73;14.55;;;;;;;;;;4970223;28;20603;-88
2021/06/26 06:17:33;;;;;;;19.48;14.27;;;;;;;;;;4973990;28;20031;-89
2021/06/26 06:20:18;;;;;;;15.13;12.32;;;;;;;;;;4968917;28;20031;-89
2021/06/26 06:23:04;;;;;;;15.75;13.13;;;;;;;;;;4972288;28;20389;-89
2021/06/26 06:25:49;;;;;;;32.05;27.33;;;;;;;;;;4974386;28;20585;-89
2021/06/26 06:28:34;;;;;;;21.48;16.65;;;;;;;;;;4976056;28;20030;-89
2021/06/26 06:31:20;;;;;;;17.98;15.68;;;;;;;;;;4979898;28;20026;-89
2021/06/26 06:34:05;;;;;;;15.60;13.88;;;;;;;;;;4964465;28;20091;-88
2021/06/26 06:36:50;;;;;;;16.98;15.07;;;;;;;;;;4978461;28;20018;-91
2021/06/26 06:39:35;;;;;;;20.67;15.15;;;;;;;;;;4952453;28;20035;-90
2021/06/26 06:42:21;;;;;;;16.10;13.88;;;;;;;;;;4991394;28;20459;-91
2021/06/26 06:45:06;;;;;;;16.55;13.02;;;;;;;;;;4974331;28;20113;-92
2021/06/26 06:47:51;;;;;;;15.70;13.55;;;;;;;;;;4968182;28;20022;-91
2021/06/26 06:50:37;;;;;;;15.68;14.05;;;;;;;;;;4983828;28;20031;-90
2021/06/26 06:53:22;;;;;;;16.88;13.23;;;;;;;;;;4996916;28;20034;-89
2021/06/26 06:56:07;;;;;;;17.70;14.38;;;;;;;;;;4990768;28;20738;-89
2021/06/26 06:58:53;;;;;;;16.08;13.82;;;;;;;;;;4983438;28;20026;-88
2021/06/26 07:01:38;;;;;;;19.45;13.60;;;;;;;;;;4967280;28;20030;-88
2021/06/26 07:04:23;;;;;;;16.15;14.32;;;;;;;;;;4975152;28;20026;-87
2021/06/26 07:07:08;;;;;;;24.67;20.98;;;;;;;;;;4974943;28;20109;-89
2021/06/26 07:09:53;;;;;;;33.45;28.10;;;;;;;;;;4969934;28;20421;-88
2021/06/26 07:12:39;;;;;;;19.80;14.30;;;;;;;;;;4955472;28;20093;-88
2021/06/26 07:15:24;;;;;;;17.58;15.02;;;;;;;;;;4967773;28;20035;-88
2021/06/26 07:18:09;;;;;;;16.80;14.93;;;;;;;;;;4970215;28;20029;-88
2021/06/26 07:20:54;;;;;;;15.93;13.02;;;;;;;;;;4961756;28;20614;-91
2021/06/26 07:23:39;;;;;;;18.05;12.38;;;;;;;;;;4972364;28;20362;-89
2021/06/26 07:26:25;;;;;;;15.70;13.52;;;;;;;;;;4967257;28;20504;-89
2021/06/26 07:29:10;;;;;;;14.73;13.10;;;;;;;;;;4965712;28;20026;-88
2021/06/26 07:31:55;;;;;;;15.20;12.70;;;;;;;;;;4962209;28;20126;-88
2021/06/26 07:34:40;;;;;;;14.60;11.88;;;;;;;;;;4966585;28;20027;-90
2021/06/26 07:37:26;;;;;;;14.90;12.65;;;;;;;;;;4948599;28;20481;-88
2021/06/26 07:40:12;;;;;;;16.38;10.32;;;;;;;;;;4965822;28;20124;-87
2021/06/26 07:42:57;;;;;;;13.00;10.02;;;;;;;;;;4960551;28;20027;-89
2021/06/26 07:45:42;;;;;;;14.82;12.60;;;;;;;;;;4966262;28;20026;-90
2021/06/26 07:48:28;;;;;;;16.17;12.25;;;;;;;;;;4967941;28;20501;-92
2021/06/26 07:51:13;;;;;;;18.75;11.60;;;;;;;;;;4972984;28;20015;-91
2021/06/26 07:53:59;;;;;;;14.32;11.20;;;;;;;;;;4963103;28;20084;-89
2021/06/26 07:56:44;;;;;;;14.52;11.60;;;;;;;;;;4976751;28;20094;-90
2021/06/26 07:59:30;;;;;;;11.80;9.98;;;;;;;;;;4968385;28;20027;-90
2021/06/26 08:02:15;;;;;;;20.10;17.98;;;;;;;;;;4975604;28;20038;-89
2021/06/26 08:05:00;;;;;;;15.00;13.40;;;;;;;;;;4962177;28;20023;-89
2021/06/26 08:07:45;;;;;;;11.00;9.38;;;;;;;;;;4964242;28;20250;-88
2021/06/26 08:10:31;;;;;;;10.50;9.35;;;;;;;;;;4977554;28;20101;-90
2021/06/26 08:13:24;;;;;;;12.70;9.15;;;;;;;;;;4944944;28;20035;-93
2021/06/26 08:16:11;;;;;;;13.57;11.45;;;;;;;;;;4971921;28;20544;-91
2021/06/26 08:18:56;;;;;;;12.57;10.25;;;;;;;;;;4955970;28;20032;-89
2021/06/26 08:21:43;;;;;;;12.70;9.40;;;;;;;;;;4952568;28;20474;-90
2021/06/26 08:24:28;;;;;;;11.63;9.45;;;;;;;;;;4950967;28;20476;-90
2021/06/26 08:27:13;;;;;;;11.60;9.25;;;;;;;;;;4969620;28;20030;-89
2021/06/26 08:29:59;;;;;;;12.38;9.55;;;;;;;;;;4935882;29;20081;-90
2021/06/26 08:32:45;;;;;;;11.98;9.82;;;;;;;;;;4965452;28;20027;-92
2021/06/26 08:38:52;;;;;;;11.98;9.13;;;;;;;;;;4968150;28;20036;-92
2021/06/26 08:41:45;;;;;;;10.57;8.77;;;;;;;;;;4968135;28;20413;-91
2021/06/26 08:44:31;;;;;;;11.13;8.90;;;;;;;;;;4967250;28;20694;-90
2021/06/26 08:47:16;;;;;;;9.43;7.72;;;;;;;;;;4967238;28;20022;-89
2021/06/26 08:50:02;;;;;;;9.60;8.30;;;;;;;;;;4947751;28;20038;-90
2021/06/26 08:52:51;;;;;;;10.43;8.77;;;;;;;;;;4968188;28;20023;-89
2021/06/26 08:55:36;;;;;;;9.60;8.05;;;;;;;;;;4965707;28;20039;-89
2021/06/26 08:58:22;;;;;;;9.32;7.35;;;;;;;;;;4959312;28;20031;-89
2021/06/26 09:01:07;;;;;;;11.40;7.95;;;;;;;;;;4961518;28;20023;-89
2021/06/26 09:04:05;;;;;;;10.65;8.82;;;;;;;;;;4962694;28;20023;-89
2021/06/26 09:06:52;;;;;;;9.23;7.10;;;;;;;;;;4958778;28;20093;-89
2021/06/26 09:09:38;;;;;;;15.00;13.40;;;;;;;;;;4964880;28;20481;-89
2021/06/26 09:12:26;;;;;;;16.40;14.15;;;;;;;;;;4969547;28;20038;-88
2021/06/26 09:15:20;;;;;;;8.88;7.22;;;;;;;;;;4971351;28;20037;-89
2021/06/26 09:18:10;;;;;;;8.85;6.45;;;;;;;;;;4964395;28;20033;-89
2021/06/26 09:20:58;;;;;;;13.07;8.70;;;;;;;;;;4987250;28;20018;-89
2021/06/26 09:23:45;;;;;;;11.13;8.60;;;;;;;;;;4978403;28;20037;-90
2021/06/26 09:26:30;;;;;;;10.77;8.90;;;;;;;;;;4981105;28;20027;-89
2021/06/26 09:29:16;;;;;;;11.02;8.43;;;;;;;;;;4974128;28;20026;-88
2021/06/26 09:32:04;;;;;;;10.15;8.50;;;;;;;;;;4972894;28;20037;-88
2021/06/26 09:34:49;;;;;;;8.25;7.38;;;;;;;;;;4959621;28;20023;-90
2021/06/26 09:37:38;;;;;;;8.30;7.40;;;;;;;;;;4971151;28;20037;-90
2021/06/26 09:40:28;;;;;;;9.23;8.00;;;;;;;;;;4963066;28;20392;-87
2021/06/26 09:43:23;;;;;;;11.15;8.30;;;;;;;;;;4969139;28;20026;-88
2021/06/26 09:46:14;;;;;;;9.75;7.40;;;;;;;;;;4967465;28;20408;-89
2021/06/26 09:49:01;;;;;;;10.25;8.38;;;;;;;;;;4970373;28;20022;-88
2021/06/26 09:51:57;;;;;;;9.27;7.28;;;;;;;;;;4960545;28;20027;-90
2021/06/26 09:54:43;;;;;;;7.55;6.50;;;;;;;;;;4966726;28;20478;-91
2021/06/26 09:57:34;;;;;;;7.72;6.38;;;;;;;;;;4977319;28;20064;-91
2021/06/26 10:00:21;;;;;;;9.15;6.93;;;;;;;;;;4963345;28;20024;-90
2021/06/26 10:03:07;;;;;;;7.97;6.50;;;;;;;;;;4968926;28;20061;-90
2021/06/26 10:05:52;;;;;;;8.25;6.70;;;;;;;;;;4953590;28;20048;-91
2021/06/26 10:08:45;;;;;;;7.47;6.55;;;;;;;;;;4967085;28;20234;-91
2021/06/26 10:11:48;;;;;;;8.25;6.55;;;;;;;;;;4968154;28;20041;-92
2021/06/26 10:14:34;;;;;;;7.75;6.07;;;;;;;;;;4969449;28;20026;-92
2021/06/26 10:17:21;;;;;;;8.27;7.18;;;;;;;;;;4967415;28;20047;-92
2021/06/26 10:20:09;;;;;;;9.73;6.22;;;;;;;;;;4974929;28;20034;-93
2021/06/26 10:22:58;;;;;;;7.82;6.68;;;;;;;;;;4958753;28;20030;-93
2021/06/26 10:25:44;;;;;;;8.00;6.45;;;;;;;;;;4965120;28;20027;-93
2021/06/26 10:28:30;;;;;;;8.15;6.72;;;;;;;;;;4970753;28;20488;-93
2021/06/26 10:31:26;;;;;;;10.80;7.88;;;;;;;;;;4973395;28;20030;-88
2021/06/26 10:34:16;;;;;;;7.82;6.60;;;;;;;;;;4966115;28;20033;-86
2021/06/26 10:37:12;;;;;;;9.02;7.00;;;;;;;;;;4974005;28;20018;-87
2021/06/26 10:40:04;;;;;;;8.30;6.60;;;;;;;;;;4967099;28;20029;-87
2021/06/26 10:42:49;;;;;;;6.22;5.63;;;;;;;;;;4970366;28;20023;-87
2021/06/26 10:45:34;;;;;;;8.00;6.28;;;;;;;;;;4965333;28;20038;-88
2021/06/26 10:48:27;;;;;;;8.57;5.43;;;;;;;;;;4973602;28;20014;-88
2021/06/26 10:51:12;;;;;;;10.98;6.57;;;;;;;;;;4976731;28;20370;-86
2021/06/26 10:54:08;;;;;;;7.70;6.05;;;;;;;;;;4972431;28;20033;-85
2021/06/26 10:57:01;;;;;;;12.77;10.48;;;;;;;;;;4968700;28;20034;-88
2021/06/26 10:59:57;;;;;;;8.30;6.57;;;;;;;;;;4971477;28;20033;-88
2021/06/26 11:02:43;;;;;;;8.00;6.00;;;;;;;;;;4975908;28;20037;-92
2021/06/26 11:05:30;;;;;;;8.57;5.88;;;;;;;;;;4980425;28;20022;-91
2021/06/26 11:08:17;;;;;;;6.65;5.95;;;;;;;;;;4980945;28;20104;-91
2021/06/26 11:11:02;;;;;;;6.93;5.72;;;;;;;;;;4978787;28;20026;-89
2021/06/26 11:13:48;;;;;;;7.15;6.28;;;;;;;;;;4975964;28;20173;-88
2021/06/26 11:16:33;;;;;;;8.23;5.20;;;;;;;;;;4973039;28;20053;-91
2021/06/26 11:19:20;;;;;;;5.65;4.68;;;;;;;;;;4968926;28;20026;-90
2021/06/26 11:22:05;;;;;;;5.72;4.70;;;;;;;;;;4973952;28;20034;-90
2021/06/26 11:24:50;;;;;;;6.43;5.00;;;;;;;;;;4982136;28;20029;-93
2021/06/26 11:31:23;;;;;;;6.35;4.82;;;;;;;;;;4979622;28;20026;-92
2021/06/26 11:41:05;;;;;;;7.28;6.28;;;;;;;;;;4976101;28;20345;-92
2021/06/26 11:43:56;;;;;;;8.27;6.75;;;;;;;;;;4967386;28;20047;-91
2021/06/26 11:46:41;;;;;;;11.30;7.65;;;;;;;;;;4979649;28;20018;-90
2021/06/26 11:49:33;;;;;;;10.13;7.75;;;;;;;;;;4978221;28;20233;-89
2021/06/26 11:52:32;;;;;;;10.27;7.47;;;;;;;;;;4977534;28;20033;-91
2021/06/26 11:55:28;;;;;;;8.18;5.80;;;;;;;;;;4945315;28;20077;-90
2021/06/26 11:58:13;;;;;;;8.10;5.53;;;;;;;;;;4965005;28;20031;-88
2021/06/26 12:01:06;;;;;;;6.50;5.55;;;;;;;;;;4969772;28;20105;-89
2021/06/26 12:03:52;;;;;;;6.05;5.15;;;;;;;;;;4964553;28;20117;-88
2021/06/26 12:06:38;;;;;;;6.25;5.28;;;;;;;;;;4977225;28;20380;-90
2021/06/26 12:19:30;;;;;;;6.00;4.93;;;;;;;;;;4913286;29;20493;-89
2021/06/26 12:22:24;;;;;;;20.90;18.65;;;;;;;;;;4913278;29;20122;-89
2021/06/26 12:28:46;;;;;;;7.57;5.68;;;;;;;;;;4823534;29;20051;-92
2021/06/26 12:32:19;;;;;;;7.07;5.30;;;;;;;;;;4841842;29;20038;-90
2021/06/26 12:35:19;;;;;;;7.90;5.68;;;;;;;;;;4775812;29;20036;-91
2021/06/26 12:57:30;;;;;;;7.30;4.55;;;;;;;;;;4912708;28;20538;-89
2021/06/26 13:00:19;;;;;;;6.40;5.15;;;;;;;;;;4969252;28;20531;-90
2021/06/26 13:03:17;;;;;;;8.27;5.32;;;;;;;;;;4977186;28;20026;-89
2021/06/26 13:32:18;;;;;;;7.22;4.90;;;;;;;;;;4855974;29;20037;-90
2021/06/26 13:34:58;;;;;;;17.38;15.45;;;;;;;;;;4829069;29;20080;-89
2021/06/26 13:38:19;;;;;;;11.88;8.75;;;;;;;;;;4813539;29;20427;-89
2021/06/26 13:59:05;;;;;;;;;;;;;;;;;;;;;
2021/06/26 14:15:27;;;;;;;5.90;4.70;;;;;;;;;;4833996;29;20494;-90
2021/06/26 14:21:34;;;;;;;6.68;5.00;;;;;;;;;;4914124;28;20051;-89
2021/06/26 14:24:21;;;;;;;7.53;4.88;;;;;;;;;;4973926;28;20015;-88
2021/06/26 14:27:10;;;;;;;8.02;5.82;;;;;;;;;;4963845;28;20042;-88
2021/06/26 14:30:06;;;;;;;8.27;6.03;;;;;;;;;;4968769;28;20030;-88
2021/06/26 14:32:51;;;;;;;6.07;5.40;;;;;;;;;;4968159;28;20023;-89
2021/06/26 14:35:40;;;;;;;8.75;6.57;;;;;;;;;;4956529;28;20029;-89
2021/06/26 14:38:42;;;;;;;7.80;6.10;;;;;;;;;;4968381;28;20026;-90
2021/06/26 14:41:28;;;;;;;10.77;6.10;;;;;;;;;;4914254;29;20272;-89
2021/06/26 14:44:42;;;;;;;6.50;5.57;;;;;;;;;;4898819;28;20036;-89
2021/06/26 14:47:57;;;;;;;7.78;6.03;;;;;;;;;;4963210;28;20054;-88
2021/06/26 14:50:42;;;;;;;9.38;5.88;;;;;;;;;;4927927;28;20035;-90
2021/06/26 14:53:31;;;;;;;6.60;4.70;;;;;;;;;;4899828;28;20035;-88
2021/06/26 14:56:34;;;;;;;7.85;5.65;;;;;;;;;;4965967;28;20065;-89
2021/06/26 14:59:20;;;;;;;9.98;5.82;;;;;;;;;;4959206;28;20034;-89
2021/06/26 15:02:08;;;;;;;6.35;5.38;;;;;;;;;;4969332;28;20042;-89
2021/06/26 15:04:53;;;;;;;8.25;5.47;;;;;;;;;;4945205;28;20073;-89
2021/06/26 15:07:44;;;;;;;6.38;5.65;;;;;;;;;;4937035;28;20047;-88
2021/06/26 15:10:29;;;;;;;10.65;6.15;;;;;;;;;;4948958;28;20117;-89
2021/06/26 15:16:54;;;;;;;8.77;5.95;;;;;;;;;;4963195;28;20032;-89
2021/06/26 15:19:58;;;;;;;;;;;;;;;;;;;;;
2021/06/26 15:22:46;;;;;;;9.70;5.43;;;;;;;;;;4963693;28;20042;-88
2021/06/26 15:25:34;;;;;;;7.65;5.65;;;;;;;;;;4951099;28;20023;-89
2021/06/26 15:28:19;;;;;;;7.57;5.07;;;;;;;;;;4955883;28;20019;-89
2021/06/26 15:31:04;;;;;;;7.45;5.57;;;;;;;;;;4955339;28;20026;-88
2021/06/26 15:33:55;;;;;;;5.35;4.47;;;;;;;;;;4952633;28;20041;-89
2021/06/26 15:36:41;;;;;;;6.30;5.10;;;;;;;;;;4953817;28;20381;-88
2021/06/26 15:39:27;;;;;;;6.45;4.30;;;;;;;;;;4956152;28;20081;-89
2021/06/26 15:42:30;;;;;;;6.30;5.00;;;;;;;;;;4950675;28;20062;-90
2021/06/26 15:45:22;;;;;;;7.57;5.03;;;;;;;;;;4951897;28;20034;-89
2021/06/26 15:48:07;;;;;;;7.10;5.05;;;;;;;;;;4951561;28;20226;-89
2021/06/26 15:50:53;;;;;;;7.47;4.97;;;;;;;;;;4935263;28;20566;-90
2021/06/26 15:53:38;;;;;;;7.25;5.20;;;;;;;;;;4957911;28;20030;-89
2021/06/26 15:56:32;;;;;;;8.15;5.38;;;;;;;;;;4954544;28;20019;-90
2021/06/26 15:59:17;;;;;;;6.25;5.10;;;;;;;;;;4948986;28;20035;-90
2021/06/26 16:02:17;;;;;;;7.70;5.50;;;;;;;;;;4958012;28;20015;-90
2021/06/26 16:07:46;;;;;;;6.45;5.78;;;;;;;;;;5804155;23;20426;-90
2021/06/26 16:10:33;;;;;;;27.25;6.63;;;;;;;;;;4936448;28;20441;-90
2021/06/26 16:13:18;;;;;;;7.47;5.22;;;;;;;;;;4960257;28;20086;-90
2021/06/26 16:16:05;;;;;;;8.20;5.10;;;;;;;;;;4953737;28;20093;-89
2021/06/26 16:18:50;;;;;;;6.88;5.05;;;;;;;;;;4958756;28;20042;-88
2021/06/26 16:21:36;;;;;;;6.82;5.55;;;;;;;;;;4945403;28;20040;-90
2021/06/26 16:24:53;;;;;;;7.28;4.70;;;;;;;;;;4947049;28;20026;-91
2021/06/26 16:27:40;;;;;;;6.03;4.57;;;;;;;;;;4932395;28;20426;-90
2021/06/26 16:30:26;;;;;;;6.07;4.72;;;;;;;;;;4944579;28;20158;-88
2021/06/26 16:33:14;;;;;;;7.35;4.88;;;;;;;;;;4954102;28;20460;-90
2021/06/26 16:36:04;;;;;;;8.90;5.05;;;;;;;;;;4944800;28;20026;-90
2021/06/26 16:38:59;;;;;;;9.45;5.82;;;;;;;;;;4959615;28;20245;-88
2021/06/26 16:41:44;;;;;;;9.18;5.50;;;;;;;;;;4948118;28;20169;-89
2021/06/26 16:44:29;;;;;;;6.38;5.13;;;;;;;;;;4955960;28;20026;-89
2021/06/26 16:47:18;;;;;;;7.25;4.90;;;;;;;;;;4938291;28;20481;-90
2021/06/26 16:50:04;;;;;;;5.93;4.68;;;;;;;;;;4957262;28;20018;-89
2021/06/26 16:52:49;;;;;;;5.70;4.80;;;;;;;;;;4954369;28;20117;-89
2021/06/26 16:55:42;;;;;;;7.57;5.18;;;;;;;;;;4963676;28;20619;-86
2021/06/26 16:58:34;;;;;;;7.57;5.15;;;;;;;;;;4952720;28;20746;-88
2021/06/26 17:01:23;;;;;;;6.82;4.50;;;;;;;;;;4959220;28;20484;-89
2021/06/26 17:04:08;;;;;;;9.05;5.00;;;;;;;;;;4942820;28;20023;-88
2021/06/26 17:06:59;;;;;;;10.52;5.80;;;;;;;;;;4936093;28;20035;-89
2021/06/26 17:13:01;;;;;;;6.97;5.53;;;;;;;;;;4934684;28;20050;-89
2021/06/26 17:15:46;;;;;;;8.07;6.25;;;;;;;;;;4932484;29;20117;-89
2021/06/26 17:18:32;;;;;;;11.23;7.30;;;;;;;;;;4940636;29;20027;-89
2021/06/26 18:27:28;;;;;;;11.27;7.22;;;;;;;;;;6146257;23;20018;-91
2021/06/26 18:30:16;;;;;;;10.10;8.00;;;;;;;;;;4910484;29;20039;-89
2021/06/26 18:33:07;;;;;;;11.82;7.70;;;;;;;;;;4909592;29;20028;-87
2021/06/26 18:35:53;;;;;;;14.32;8.23;;;;;;;;;;4907690;29;20055;-88
2021/06/26 18:38:39;;;;;;;9.18;7.68;;;;;;;;;;4911033;29;20031;-88
2021/06/26 18:41:25;;;;;;;9.45;8.05;;;;;;;;;;4910776;29;20036;-88
2021/06/26 18:44:18;;;;;;;10.63;7.43;;;;;;;;;;4912873;29;20161;-88
2021/06/26 18:47:15;;;;;;;10.43;7.85;;;;;;;;;;4924988;29;20024;-90
2021/06/26 18:50:02;;;;;;;8.55;7.22;;;;;;;;;;4917547;29;20058;-88
2021/06/26 18:52:50;;;;;;;15.45;7.47;;;;;;;;;;4914306;29;20035;-89
2021/06/26 18:55:36;;;;;;;10.43;8.52;;;;;;;;;;4918837;29;20079;-90
2021/06/26 18:58:21;;;;;;;10.38;7.25;;;;;;;;;;4915393;29;20046;-88
2021/06/26 19:01:08;;;;;;;13.20;8.43;;;;;;;;;;4903602;29;20032;-89
2021/06/26 19:03:54;;;;;;;10.35;8.18;;;;;;;;;;4917694;29;20020;-88
2021/06/26 19:06:39;;;;;;;19.48;7.43;;;;;;;;;;4904613;29;20023;-87
2021/06/26 19:09:25;;;;;;;12.50;9.00;;;;;;;;;;4913777;29;20084;-89
2021/06/26 19:12:13;;;;;;;9.85;7.28;;;;;;;;;;4910494;29;20564;-89
2021/06/26 19:14:58;;;;;;;11.82;7.90;;;;;;;;;;4918079;29;20390;-89
2021/06/26 19:18:00;;;;;;;13.77;7.40;;;;;;;;;;4935791;29;20027;-90
2021/06/26 19:20:46;;;;;;;11.40;7.93;;;;;;;;;;4924250;29;20032;-88
2021/06/26 19:23:31;;;;;;;10.60;8.18;;;;;;;;;;4905073;29;20023;-87
2021/06/26 19:26:40;;;;;;;12.30;8.90;;;;;;;;;;4913521;29;20028;-91
2021/06/26 19:29:28;;;;;;;12.15;8.60;;;;;;;;;;4913394;29;20402;-88
2021/06/26 19:56:12;;;;;;;;;;;;;;;;;;;;;
2021/06/26 19:59:03;;;;;;;14.57;8.82;;;;;;;;;;4812650;29;20102;-89
2021/06/26 20:02:16;;;;;;;11.40;8.45;;;;;;;;;;4826441;29;20030;-89
2021/06/26 20:05:11;;;;;;;11.15;9.43;;;;;;;;;;4826143;29;20059;-90